Time;durP1;ratioP1;P1;durP2;ratioP2;P2;SDS_P1;SDS_P2;PMS_P1;PMS_P2;Temp;Humidity;BMP_temperature;BMP_pressure;BME280_temperature;BME280_humidity;BME280_pressure;Samples;Min_cycle;Max_cycle;Signal;HPM_P1;HPM_P2
2023/07/01 00:02:24;;;;;;;1999.90;999.90;;;16.90;99.90;;;;;;6739994;88;20203;-77
2023/07/01 00:12:25;;;;;;;1999.90;999.90;;;16.80;99.90;;;;;;6747784;88;20172;-77
2023/07/01 00:22:25;;;;;;;1999.90;999.90;;;16.90;99.90;;;;;;6752000;87;20259;-77
2023/07/01 00:32:26;;;;;;;1999.90;999.90;;;16.80;99.90;;;;;;6744476;87;20185;-77
2023/07/01 00:42:26;;;;;;;1999.90;999.90;;;16.80;99.90;;;;;;6744123;88;20383;-77
2023/07/01 00:52:27;;;;;;;1999.90;999.90;;;16.90;99.90;;;;;;6746637;87;20246;-77
2023/07/01 01:02:33;;;;;;;1999.90;999.90;;;16.90;99.90;;;;;;6741189;88;20674;-77
2023/07/01 01:12:38;;;;;;;1999.90;999.90;;;17.00;99.90;;;;;;6744253;88;20708;-76
2023/07/01 01:23:16;;;;;;;1999.90;999.90;;;17.10;99.90;;;;;;6752084;88;20236;-77
2023/07/01 01:33:17;;;;;;;1999.90;999.90;;;17.10;99.90;;;;;;6755504;87;20497;-77
2023/07/01 01:43:24;;;;;;;1999.90;999.90;;;17.10;99.90;;;;;;6761148;88;20190;-77
2023/07/01 01:53:27;;;;;;;1999.90;999.90;;;17.00;99.90;;;;;;6754688;88;20196;-77
2023/07/01 02:03:27;;;;;;;1999.90;999.90;;;17.00;99.90;;;;;;6749499;87;20204;-77
2023/07/01 02:13:28;;;;;;;1999.90;999.90;;;17.10;99.90;;;;;;6744633;88;20649;-77
2023/07/01 02:23:28;;;;;;;1999.90;999.90;;;17.10;99.90;;;;;;6743468;87;20175;-78
2023/07/01 02:33:29;;;;;;;1999.90;999.90;;;17.00;99.90;;;;;;6736772;88;21435;-77
2023/07/01 02:43:29;;;;;;;1999.90;999.90;;;17.20;99.90;;;;;;6753563;88;20357;-78
2023/07/01 02:53:30;;;;;;;1999.90;999.90;;;17.20;99.90;;;;;;6749580;88;20204;-77
2023/07/01 03:03:30;;;;;;;1999.90;999.90;;;17.30;99.90;;;;;;6752035;88;20213;-78
2023/07/01 03:13:31;;;;;;;1999.90;999.90;;;17.30;99.90;;;;;;6748826;87;20189;-77
2023/07/01 03:23:31;;;;;;;1999.90;999.90;;;17.20;99.90;;;;;;6751199;87;20672;-77
2023/07/01 03:33:32;;;;;;;1999.90;999.90;;;17.30;99.90;;;;;;6748776;88;20165;-77
2023/07/01 03:43:33;;;;;;;1999.90;999.90;;;17.50;99.90;;;;;;6746304;87;20753;-77
2023/07/01 03:53:34;;;;;;;1999.90;999.90;;;17.50;99.90;;;;;;6751322;87;20197;-77
2023/07/01 04:03:34;;;;;;;1999.90;999.90;;;17.50;99.90;;;;;;6748220;87;20204;-77
2023/07/01 04:13:35;;;;;;;1999.90;999.90;;;17.50;99.90;;;;;;6752087;87;20326;-77
2023/07/01 04:23:36;;;;;;;1999.90;999.90;;;17.50;99.90;;;;;;6750178;87;20212;-78
2023/07/01 04:33:37;;;;;;;1999.90;999.90;;;17.60;99.90;;;;;;6746792;88;20320;-77
2023/07/01 04:43:37;;;;;;;1999.90;999.90;;;17.60;99.90;;;;;;6753416;88;20180;-77
2023/07/01 04:53:38;;;;;;;1999.90;999.90;;;17.60;99.90;;;;;;6756587;87;20201;-77
2023/07/01 05:03:42;;;;;;;1999.90;999.90;;;17.70;99.90;;;;;;6749248;87;20193;-77
2023/07/01 05:13:44;;;;;;;1999.90;999.90;;;17.70;99.90;;;;;;6752215;87;20198;-77
2023/07/01 05:23:45;;;;;;;1999.90;999.90;;;17.80;99.90;;;;;;6746793;88;20242;-77
2023/07/01 05:33:45;;;;;;;1999.90;999.90;;;17.80;99.90;;;;;;6743155;88;20590;-77
2023/07/01 05:43:46;;;;;;;1999.90;999.90;;;17.60;99.90;;;;;;6745896;88;20630;-76
2023/07/01 05:53:46;;;;;;;1999.90;999.90;;;17.60;99.90;;;;;;6742538;88;20630;-77
2023/07/01 06:03:47;;;;;;;1999.90;999.90;;;17.60;99.90;;;;;;6752761;87;20199;-77
2023/07/01 06:13:48;;;;;;;1999.90;999.90;;;17.60;99.90;;;;;;6747880;88;20503;-77
2023/07/01 06:23:48;;;;;;;1999.90;999.90;;;17.60;99.90;;;;;;6748076;87;20370;-77
2023/07/01 06:33:49;;;;;;;1999.90;999.90;;;17.60;99.90;;;;;;6746961;88;20192;-78
2023/07/01 06:43:49;;;;;;;1999.90;999.90;;;17.80;99.90;;;;;;6742160;88;20198;-78
2023/07/01 06:53:50;;;;;;;1999.90;999.90;;;17.80;99.90;;;;;;6747564;87;20228;-78
2023/07/01 07:03:50;;;;;;;1999.90;999.90;;;18.00;99.90;;;;;;6748740;87;20238;-77
2023/07/01 07:13:51;;;;;;;1999.90;999.90;;;18.30;99.90;;;;;;6751128;88;20319;-79
2023/07/01 07:23:51;;;;;;;1999.90;999.90;;;18.10;99.90;;;;;;6750566;88;20532;-78
2023/07/01 07:33:52;;;;;;;1999.90;999.90;;;17.90;99.90;;;;;;6752105;88;20205;-77
2023/07/01 07:43:53;;;;;;;1999.90;999.90;;;17.80;99.90;;;;;;6745162;88;20216;-78
2023/07/01 07:53:53;;;;;;;1999.90;999.90;;;17.60;99.90;;;;;;6749877;88;20204;-77
2023/07/01 08:03:54;;;;;;;1999.90;999.90;;;17.50;99.90;;;;;;6750959;88;20212;-79
2023/07/01 08:13:55;;;;;;;1999.90;999.90;;;17.70;99.90;;;;;;6751003;88;20208;-75
2023/07/01 08:23:56;;;;;;;1999.90;999.90;;;17.90;99.90;;;;;;6742246;88;20195;-77
2023/07/01 08:33:57;;;;;;;1999.90;999.90;;;18.20;99.90;;;;;;6748415;87;20177;-75
2023/07/01 08:43:59;;;;;;;1999.90;999.90;;;18.00;99.90;;;;;;6742252;88;20343;-77
2023/07/01 08:54:02;;;;;;;1999.90;999.90;;;17.90;99.90;;;;;;6750461;88;20249;-77
2023/07/01 09:04:02;;;;;;;1999.90;999.90;;;17.80;99.90;;;;;;6744733;87;20191;-77
2023/07/01 09:14:03;;;;;;;1999.90;999.90;;;17.70;99.90;;;;;;6752781;87;20217;-78
2023/07/01 09:24:06;;;;;;;1999.90;999.90;;;17.80;99.90;;;;;;6748864;87;20234;-79
2023/07/01 09:42:30;;;;;;;1999.90;999.90;;;19.70;99.90;;;;;;6778564;86;20211;-78
2023/07/01 09:52:41;;;;;;;1999.90;999.90;;;19.30;99.90;;;;;;6788250;87;20306;-78
2023/07/01 10:02:44;;;;;;;1999.90;999.90;;;19.20;99.90;;;;;;6787921;87;20330;-78
2023/07/01 10:12:46;;;;;;;1999.90;999.90;;;19.20;99.90;;;;;;6778895;87;20247;-78
2023/07/01 10:23:13;;;;;;;1999.90;999.90;;;19.00;99.90;;;;;;6786586;87;20183;-78
2023/07/01 10:33:30;;;;;;;1999.90;999.90;;;19.40;99.90;;;;;;6783060;87;20184;-81
2023/07/01 10:43:33;;;;;;;1999.90;999.90;;;19.90;99.90;;;;;;6776761;87;20179;-78
2023/07/01 10:54:02;;;;;;;1999.90;999.90;;;19.60;99.90;;;;;;6768033;87;20204;-77
2023/07/01 11:04:03;;;;;;;1999.90;999.90;;;19.40;99.90;;;;;;6771413;87;20255;-78
2023/07/01 11:14:06;;;;;;;1999.90;999.90;;;19.70;99.90;;;;;;6771651;87;20260;-78
2023/07/01 11:24:08;;;;;;;1999.90;999.90;;;19.20;99.90;;;;;;6772088;87;20680;-77
2023/07/01 11:34:17;;;;;;;1999.90;999.90;;;19.20;99.90;;;;;;6776680;87;20215;-77
2023/07/01 11:44:20;;;;;;;1999.90;999.90;;;19.30;99.90;;;;;;6770755;87;20230;-78
2023/07/01 11:54:43;;;;;;;1999.90;999.90;;;19.70;99.90;;;;;;6776160;88;20920;-80
2023/07/01 12:04:44;;;;;;;1999.90;999.90;;;19.60;99.90;;;;;;6779502;87;20176;-80
2023/07/01 12:14:48;;;;;;;1999.90;999.90;;;19.80;99.90;;;;;;6769395;87;20205;-80
2023/07/01 12:24:56;;;;;;;1999.90;999.90;;;19.70;99.90;;;;;;6764966;88;20486;-79
2023/07/01 12:34:57;;;;;;;1999.90;999.90;;;19.90;99.90;;;;;;6770291;87;20191;-80
2023/07/01 12:44:57;;;;;;;1999.90;999.90;;;19.80;99.90;;;;;;6768007;88;20183;-80
2023/07/01 12:54:58;;;;;;;1999.90;999.90;;;19.70;99.90;;;;;;6768230;88;20187;-79
2023/07/01 13:16:00;;;;;;;1999.90;999.90;;;19.40;99.90;;;;;;6759240;88;20169;-80
2023/07/01 13:37:03;;;;;;;1999.90;999.90;;;19.80;99.90;;;;;;6756593;88;20238;-80
2023/07/01 13:47:06;;;;;;;1999.90;999.90;;;20.00;99.90;;;;;;6763278;88;20164;-83
2023/07/01 13:57:13;;;;;;;1999.90;999.90;;;20.60;99.90;;;;;;6751895;88;20221;-80
2023/07/01 14:07:18;;;;;;;1999.90;999.90;;;21.10;99.90;;;;;;6734871;88;20343;-78
2023/07/01 14:17:19;;;;;;;1999.90;999.90;;;21.10;99.90;;;;;;6760619;88;20215;-79
2023/07/01 14:27:26;;;;;;;1999.90;999.90;;;21.30;99.90;;;;;;6758913;88;20819;-83
2023/07/01 14:47:31;;;;;;;1999.90;999.90;;;20.60;99.90;;;;;;6753053;88;20205;-79
2023/07/01 14:57:31;;;;;;;1999.90;999.90;;;19.70;99.90;;;;;;6747892;88;20280;-79
2023/07/01 15:07:33;;;;;;;1999.90;999.90;;;20.10;99.90;;;;;;6745777;88;20779;-80
2023/07/01 15:17:34;;;;;;;1999.90;999.90;;;20.40;99.90;;;;;;6731481;88;20312;-79
2023/07/01 15:27:34;;;;;;;1999.90;999.90;;;20.70;99.90;;;;;;6728252;88;20645;-78
2023/07/01 15:37:36;;;;;;;1999.90;999.90;;;21.20;99.90;;;;;;6728542;88;20255;-78
2023/07/01 15:47:36;;;;;;;1999.90;999.90;;;22.30;99.90;;;;;;6758220;88;20649;-78
2023/07/01 15:57:37;;;;;;;1999.90;999.90;;;22.00;99.90;;;;;;6762931;88;20179;-79
2023/07/01 16:07:56;;;;;;;1999.90;999.90;;;21.40;99.90;;;;;;6760152;88;20205;-79
2023/07/01 16:18:06;;;;;;;1999.90;999.90;;;21.10;99.90;;;;;;6759969;88;20246;-79
2023/07/01 16:28:07;;;;;;;1999.90;999.90;;;21.30;99.90;;;;;;6756628;88;20175;-80
2023/07/01 16:38:26;;;;;;;1999.90;999.90;;;21.90;99.90;;;;;;6763792;88;20247;-79
2023/07/01 16:48:48;;;;;;;1999.90;999.90;;;22.50;99.90;;;;;;6726973;88;20203;-79
2023/07/01 16:58:50;;;;;;;1999.90;999.90;;;22.40;99.90;;;;;;6726332;88;20196;-79
2023/07/01 17:08:51;;;;;;;1999.90;999.90;;;22.70;99.90;;;;;;6727909;77;20245;-75
2023/07/01 17:18:51;;;;;;;1999.90;999.90;;;23.00;99.90;;;;;;6720740;88;20186;-75
2023/07/01 17:28:52;;;;;;;1999.90;999.90;;;23.30;99.90;;;;;;6720394;88;20790;-75
2023/07/01 17:38:52;;;;;;;1999.90;999.90;;;23.50;99.90;;;;;;6721599;88;20197;-76
2023/07/01 17:48:53;;;;;;;1999.90;999.90;;;23.00;99.90;;;;;;6717513;88;20276;-76
2023/07/01 17:58:53;;;;;;;1999.90;999.90;;;22.60;99.90;;;;;;6722701;88;20225;-77
2023/07/01 18:08:54;;;;;;;1999.90;999.90;;;22.30;99.90;;;;;;6724790;88;20229;-77
2023/07/01 18:18:54;;;;;;;1999.90;999.90;;;21.90;99.90;;;;;;6721065;88;20192;-76
2023/07/01 18:28:55;;;;;;;1999.90;999.90;;;21.70;99.90;;;;;;6717888;88;20254;-78
2023/07/01 18:38:55;;;;;;;1999.90;999.90;;;21.40;99.90;;;;;;6720344;88;20248;-77
2023/07/01 18:48:56;;;;;;;1999.90;999.90;;;21.10;99.90;;;;;;6725080;88;20219;-77
2023/07/01 18:58:59;;;;;;;1999.90;999.90;;;21.10;99.90;;;;;;6720885;88;20194;-78
2023/07/01 19:08:59;;;;;;;1999.90;999.90;;;21.00;99.90;;;;;;6723223;88;20193;-78
2023/07/01 19:19:00;;;;;;;1999.90;999.90;;;20.80;99.90;;;;;;6723591;88;20613;-78
2023/07/01 19:29:00;;;;;;;1999.90;999.90;;;20.60;99.90;;;;;;6714943;88;20244;-77
2023/07/01 19:39:01;;;;;;;1999.90;999.90;;;20.30;99.90;;;;;;6719240;88;20266;-77
2023/07/01 19:49:01;;;;;;;1999.90;999.90;;;20.10;99.90;;;;;;6725303;88;20254;-77
2023/07/01 19:59:02;;;;;;;1999.90;999.90;;;20.00;99.90;;;;;;6722238;88;20210;-77
2023/07/01 20:09:03;;;;;;;1999.90;999.90;;;19.90;99.90;;;;;;6715644;88;20205;-76
2023/07/01 20:19:03;;;;;;;1999.90;999.90;;;19.80;99.90;;;;;;6719730;88;20635;-78
2023/07/01 20:29:04;;;;;;;1999.90;999.90;;;19.80;99.90;;;;;;6713711;88;20229;-77
2023/07/01 20:39:04;;;;;;;1999.90;999.90;;;19.40;99.90;;;;;;6716630;88;20293;-77
2023/07/01 20:49:05;;;;;;;1999.90;999.90;;;18.90;99.90;;;;;;6720007;88;20205;-77
2023/07/01 20:59:05;;;;;;;1999.90;999.90;;;17.90;99.90;;;;;;6716034;88;20193;-76
2023/07/01 21:09:16;;;;;;;1999.90;999.90;;;17.50;99.90;;;;;;6717515;88;20713;-77
2023/07/01 21:19:17;;;;;;;1999.90;999.90;;;17.30;99.90;;;;;;6715271;88;20636;-77
2023/07/01 21:29:18;;;;;;;1999.90;999.90;;;17.20;99.90;;;;;;6717858;88;20271;-77
2023/07/01 21:39:22;;;;;;;1999.90;999.90;;;17.20;99.90;;;;;;6718104;88;20734;-77
2023/07/01 21:49:22;;;;;;;1999.90;999.90;;;17.20;99.90;;;;;;6717041;88;20632;-78
2023/07/01 21:59:27;;;;;;;1999.90;999.90;;;17.20;99.90;;;;;;6712434;88;20186;-77
2023/07/01 22:09:28;;;;;;;;;;;17.30;99.90;;;;;;6715754;88;20235;-77
2023/07/01 22:19:28;;;;;;;1999.90;999.90;;;17.20;99.90;;;;;;6719931;88;20058;-77
2023/07/01 22:29:29;;;;;;;1999.90;999.90;;;16.90;99.90;;;;;;6717640;88;20749;-76
2023/07/01 22:39:29;;;;;;;1999.90;999.90;;;16.60;99.90;;;;;;6725127;88;21762;-77
2023/07/01 22:49:29;;;;;;;1999.90;999.90;;;16.30;99.90;;;;;;6719275;88;20206;-77
2023/07/01 22:59:30;;;;;;;1999.90;999.90;;;16.00;99.90;;;;;;6718438;88;20190;-76
2023/07/01 23:09:31;;;;;;;1999.90;999.90;;;15.90;99.90;;;;;;6716274;88;20194;-77
2023/07/01 23:20:12;;;;;;;1999.90;999.90;;;15.80;99.90;;;;;;6715920;77;20291;-80
2023/07/01 23:30:15;;;;;;;1999.90;999.90;;;15.80;99.90;;;;;;6665273;89;20243;-78
2023/07/01 23:40:16;;;;;;;1999.90;999.90;;;15.90;99.90;;;;;;6665212;89;20219;-78
2023/07/01 23:50:18;;;;;;;1999.90;999.90;;;15.80;99.90;;;;;;6666954;89;21243;-79
